PWSweather.com
Personal Weather Stations
Station Observations
MARRWS
Allansford VictoriaAU 3277

Allansford VictoriaAU 3277

Lat: -38.4003683814149, Lon: 142.569826841354

Elevation: 36

Station Type: Fine Offset X7062

http://home.vicnet.net.au/~marr/Weather/

Latest ConditionsUpdated 11:00:01 PM GMT+10:10 Thursday, Aug 25, 2016
Currently Today's Max Today's Min Today's Average
Temperature 50.7°F10.4°C 68.7°F20.4°C 44.8°F7.1°C 53.2°F11.8°C
Dew Point 45.8°F7.7°C 46.8°F8.2°C 40.2°F4.6°C 43.8°F6.6°C
Winds 2.2 mph SW3.5 kmh SW 6.1 mph SE9.8 kmh SE - 3.0 mph 4.8 kmh
Wind Gusts 6.9 mph11.1 kmh 16.8 mph27.0 kmh - -
Humidity 83% 92% 41% 72%
Pressure 30.23 in1023.7 mb 30.24 in1024.0 mb 30.05 in1017.6 mb -
Hour Temp Dew Point Humidity Winds Wind Gusts Pressure Precip Precip Rate Daily Precip Total
11:00 PM 50.7°F10.4°C 45.8°F7.7°C 83% 2.2 mph SW3.5 kmh SW 6.9 mph11.1 kmh 30.23 in1023.7 mb 0.00 in0.0 mm 0.00 in0.0 mm 0.00 in0.0 mm
10:50 PM 50.9°F10.5°C 45.9°F7.7°C 83% 2.5 mph SSW4.0 kmh SSW 6.0 mph9.7 kmh 30.23 in1023.7 mb 0.00 in0.0 mm 0.00 in0.0 mm 0.00 in0.0 mm
10:40 PM 50.5°F10.3°C 45.6°F7.6°C 83% 2.0 mph SW3.2 kmh SW 6.0 mph9.7 kmh 30.23 in1023.7 mb 0.00 in0.0 mm 0.00 in0.0 mm 0.00 in0.0 mm
10:30 PM 50.5°F10.3°C 45.6°F7.6°C 83% 1.2 mph SW1.9 kmh SW 4.5 mph7.2 kmh 30.23 in1023.7 mb 0.00 in0.0 mm 0.00 in0.0 mm 0.00 in0.0 mm
10:20 PM 50.9°F10.5°C 46.2°F7.9°C 84% 1.3 mph SW2.1 kmh SW 4.5 mph7.2 kmh 30.23 in1023.7 mb 0.00 in0.0 mm 0.00 in0.0 mm 0.00 in0.0 mm
10:10 PM 50.9°F10.5°C 46.6°F8.1°C 85% 3.0 mph SW4.8 kmh SW 6.9 mph11.1 kmh 30.23 in1023.7 mb 0.00 in0.0 mm 0.00 in0.0 mm 0.00 in0.0 mm
10:00 PM 50.5°F10.3°C 46.8°F8.2°C 87% 2.4 mph WSW3.9 kmh WSW 6.0 mph9.7 kmh 30.24 in1024.0 mb 0.00 in0.0 mm 0.00 in0.0 mm 0.00 in0.0 mm
09:50 PM 49.8°F9.9°C 46.7°F8.2°C 89% 2.0 mph SSW3.2 kmh SSW 6.0 mph9.7 kmh 30.23 in1023.7 mb 0.00 in0.0 mm 0.00 in0.0 mm 0.00 in0.0 mm
09:40 PM 49.3°F9.6°C 46.8°F8.2°C 91% 1.8 mph SW2.9 kmh SW 3.8 mph6.1 kmh 30.23 in1023.7 mb 0.00 in0.0 mm 0.00 in0.0 mm 0.00 in0.0 mm
09:30 PM 49.1°F9.5°C 45.7°F7.6°C 88% 0.7 mph W1.1 kmh W 1.6 mph2.6 kmh 30.23 in1023.7 mb 0.00 in0.0 mm 0.00 in0.0 mm 0.00 in0.0 mm
09:20 PM 49.1°F9.5°C 45.7°F7.6°C 88% 0.7 mph W1.1 kmh W 1.6 mph2.6 kmh 30.23 in1023.7 mb 0.00 in0.0 mm 0.00 in0.0 mm 0.00 in0.0 mm
09:10 PM 49.1°F9.5°C 45.7°F7.6°C 88% 0.7 mph W1.1 kmh W 1.6 mph2.6 kmh 30.23 in1023.7 mb 0.00 in0.0 mm 0.00 in0.0 mm 0.00 in0.0 mm
09:00 PM 49.1°F9.5°C 45.7°F7.6°C 88% 0.7 mph W1.1 kmh W 1.6 mph2.6 kmh 30.22 in1023.4 mb 0.00 in0.0 mm 0.00 in0.0 mm 0.00 in0.0 mm
08:50 PM 49.1°F9.5°C 45.7°F7.6°C 88% 0.7 mph W1.1 kmh W 1.6 mph2.6 kmh 30.23 in1023.7 mb 0.00 in0.0 mm 0.00 in0.0 mm 0.00 in0.0 mm
08:40 PM 50.4°F10.2°C 45.1°F7.3°C 82% 5.4 mph W8.7 kmh W 9.2 mph14.8 kmh 30.22 in1023.4 mb 0.00 in0.0 mm 0.00 in0.0 mm 0.00 in0.0 mm
08:30 PM 50.4°F10.2°C 45.1°F7.3°C 82% 5.4 mph W8.7 kmh W 9.2 mph14.8 kmh 30.22 in1023.4 mb 0.00 in0.0 mm 0.00 in0.0 mm 0.00 in0.0 mm
08:20 PM 50.4°F10.2°C 45.1°F7.3°C 82% 5.5 mph W8.9 kmh W 9.2 mph14.8 kmh 30.22 in1023.4 mb 0.00 in0.0 mm 0.00 in0.0 mm 0.00 in0.0 mm
08:10 PM 50.5°F10.3°C 45.3°F7.4°C 82% 5.7 mph WSW9.2 kmh WSW 13.6 mph21.9 kmh 30.22 in1023.4 mb 0.00 in0.0 mm 0.00 in0.0 mm 0.00 in0.0 mm
08:00 PM 51.6°F10.9°C 45.3°F7.4°C 79% 2.1 mph WSW3.4 kmh WSW 9.8 mph15.8 kmh 30.22 in1023.4 mb 0.00 in0.0 mm 0.00 in0.0 mm 0.00 in0.0 mm
07:50 PM 51.3°F10.7°C 44.6°F7.0°C 78% 1.6 mph SW2.6 kmh SW 5.4 mph8.7 kmh 30.21 in1023.0 mb 0.00 in0.0 mm 0.00 in0.0 mm 0.00 in0.0 mm
07:40 PM 50.9°F10.5°C 44.0°F6.7°C 77% 1.7 mph SW2.7 kmh SW 5.4 mph8.7 kmh 30.22 in1023.4 mb 0.00 in0.0 mm 0.00 in0.0 mm 0.00 in0.0 mm
07:30 PM 50.9°F10.5°C 44.0°F6.7°C 77% 1.8 mph SSW2.9 kmh SSW 4.5 mph7.2 kmh 30.21 in1023.0 mb 0.00 in0.0 mm 0.00 in0.0 mm 0.00 in0.0 mm
07:20 PM 50.5°F10.3°C 43.6°F6.4°C 77% 1.8 mph WSW2.9 kmh WSW 5.4 mph8.7 kmh 30.20 in1022.7 mb 0.00 in0.0 mm 0.00 in0.0 mm 0.00 in0.0 mm
07:10 PM 50.7°F10.4°C 43.4°F6.3°C 76% 1.0 mph S1.6 kmh S 4.5 mph7.2 kmh 30.20 in1022.7 mb 0.00 in0.0 mm 0.00 in0.0 mm 0.00 in0.0 mm
07:00 PM 51.3°F10.7°C 43.6°F6.4°C 75% 0.8 mph SE1.3 kmh SE 4.5 mph7.2 kmh 30.19 in1022.4 mb 0.00 in0.0 mm 0.00 in0.0 mm 0.00 in0.0 mm
06:50 PM 51.8°F11.0°C 43.8°F6.6°C 74% 1.6 mph S2.6 kmh S 5.4 mph8.7 kmh 30.19 in1022.4 mb 0.00 in0.0 mm 0.00 in0.0 mm 0.00 in0.0 mm
06:40 PM 52.2°F11.2°C 44.1°F6.7°C 74% 2.0 mph S3.2 kmh S 6.9 mph11.1 kmh 30.19 in1022.4 mb 0.00 in0.0 mm 0.00 in0.0 mm 0.00 in0.0 mm
06:30 PM 52.2°F11.2°C 43.8°F6.6°C 73% 2.0 mph S3.2 kmh S 6.9 mph11.1 kmh 30.19 in1022.4 mb 0.00 in0.0 mm 0.00 in0.0 mm 0.00 in0.0 mm
06:20 PM 52.0°F11.1°C 42.9°F6.1°C 71% 1.6 mph SW2.6 kmh SW 6.0 mph9.7 kmh 30.18 in1022.0 mb 0.00 in0.0 mm 0.00 in0.0 mm 0.00 in0.0 mm
06:10 PM 52.2°F11.2°C 42.7°F5.9°C 70% 1.2 mph SW1.9 kmh SW 5.4 mph8.7 kmh 30.18 in1022.0 mb 0.00 in0.0 mm 0.00 in0.0 mm 0.00 in0.0 mm
06:00 PM 52.7°F11.5°C 42.1°F5.6°C 67% 0.9 mph WSW1.4 kmh WSW 3.8 mph6.1 kmh 30.18 in1022.0 mb 0.00 in0.0 mm 0.00 in0.0 mm 0.00 in0.0 mm
05:50 PM 53.6°F12.0°C 41.3°F5.2°C 63% 1.3 mph SW2.1 kmh SW 5.4 mph8.7 kmh 30.18 in1022.0 mb 0.00 in0.0 mm 0.00 in0.0 mm 0.00 in0.0 mm
05:40 PM 55.9°F13.3°C 41.4°F5.2°C 58% 2.0 mph SSW3.2 kmh SSW 4.5 mph7.2 kmh 30.17 in1021.7 mb 0.00 in0.0 mm 0.00 in0.0 mm 0.00 in0.0 mm
05:30 PM 57.0°F13.9°C 43.3°F6.3°C 60% 2.1 mph SW3.4 kmh SW 6.9 mph11.1 kmh 30.17 in1021.7 mb 0.00 in0.0 mm 0.00 in0.0 mm 0.00 in0.0 mm
05:20 PM 57.6°F14.2°C 41.5°F5.3°C 55% 2.3 mph SW3.7 kmh SW 6.0 mph9.7 kmh 30.18 in1022.0 mb 0.00 in0.0 mm 0.00 in0.0 mm 0.00 in0.0 mm
05:10 PM 59.4°F15.2°C 42.2°F5.7°C 53% 3.1 mph SW5.0 kmh SW 6.9 mph11.1 kmh 30.16 in1021.3 mb 0.00 in0.0 mm 0.00 in0.0 mm 0.00 in0.0 mm
05:00 PM 63.3°F17.4°C 42.2°F5.7°C 46% 2.3 mph SW3.7 kmh SW 6.9 mph11.1 kmh 30.16 in1021.3 mb 0.00 in0.0 mm 0.00 in0.0 mm 0.00 in0.0 mm
04:50 PM 63.3°F17.4°C 43.9°F6.6°C 49% 2.8 mph S4.5 kmh S 9.2 mph14.8 kmh 30.16 in1021.3 mb 0.00 in0.0 mm 0.00 in0.0 mm 0.00 in0.0 mm
04:40 PM 61.2°F16.2°C 43.4°F6.3°C 52% 3.8 mph SSW6.1 kmh SSW 9.8 mph15.8 kmh 30.16 in1021.3 mb 0.00 in0.0 mm 0.00 in0.0 mm 0.00 in0.0 mm
04:30 PM 63.9°F17.7°C 44.9°F7.2°C 50% 3.6 mph WSW5.8 kmh WSW 10.7 mph17.2 kmh 30.16 in1021.3 mb 0.00 in0.0 mm 0.00 in0.0 mm 0.00 in0.0 mm
04:20 PM 63.1°F17.3°C 44.2°F6.8°C 50% 3.9 mph SW6.3 kmh SW 9.2 mph14.8 kmh 30.15 in1021.0 mb 0.00 in0.0 mm 0.00 in0.0 mm 0.00 in0.0 mm
04:10 PM 63.5°F17.5°C 45.1°F7.3°C 51% 2.2 mph SSW3.5 kmh SSW 5.4 mph8.7 kmh 30.15 in1021.0 mb 0.00 in0.0 mm 0.00 in0.0 mm 0.00 in0.0 mm
04:00 PM 60.4°F15.8°C 43.2°F6.2°C 53% 2.5 mph S4.0 kmh S 8.3 mph13.4 kmh 30.15 in1021.0 mb 0.00 in0.0 mm 0.00 in0.0 mm 0.00 in0.0 mm
03:50 PM 63.7°F17.6°C 44.2°F6.8°C 49% 2.3 mph SW3.7 kmh SW 8.3 mph13.4 kmh 30.16 in1021.3 mb 0.00 in0.0 mm 0.00 in0.0 mm 0.00 in0.0 mm
03:40 PM 60.1°F15.6°C 43.4°F6.3°C 54% 3.3 mph S5.3 kmh S 9.2 mph14.8 kmh 30.15 in1021.0 mb 0.00 in0.0 mm 0.00 in0.0 mm 0.00 in0.0 mm
03:30 PM 61.0°F16.1°C 45.7°F7.6°C 57% 3.5 mph S5.6 kmh S 10.7 mph17.2 kmh 30.14 in1020.7 mb 0.00 in0.0 mm 0.00 in0.0 mm 0.00 in0.0 mm
03:20 PM 60.8°F16.0°C 44.1°F6.7°C 54% 4.7 mph SSW7.6 kmh SSW 12.1 mph19.5 kmh 30.14 in1020.7 mb 0.00 in0.0 mm 0.00 in0.0 mm 0.00 in0.0 mm
03:10 PM 63.7°F17.6°C 43.6°F6.4°C 48% 3.9 mph S6.3 kmh S 9.2 mph14.8 kmh 30.14 in1020.7 mb 0.00 in0.0 mm 0.00 in0.0 mm 0.00 in0.0 mm
03:00 PM 65.7°F18.7°C 46.0°F7.8°C 49% 3.6 mph SSW5.8 kmh SSW 7.6 mph12.2 kmh 30.14 in1020.7 mb 0.00 in0.0 mm 0.00 in0.0 mm 0.00 in0.0 mm
02:50 PM 62.8°F17.1°C 42.8°F6.0°C 48% 3.6 mph SSE5.8 kmh SSE 9.2 mph14.8 kmh 30.14 in1020.7 mb 0.00 in0.0 mm 0.00 in0.0 mm 0.00 in0.0 mm
02:40 PM 68.7°F20.4°C 45.3°F7.4°C 43% 3.3 mph SW5.3 kmh SW 6.9 mph11.1 kmh 30.14 in1020.7 mb 0.00 in0.0 mm 0.00 in0.0 mm 0.00 in0.0 mm
02:30 PM 68.7°F20.4°C 44.1°F6.7°C 41% 3.3 mph S5.3 kmh S 9.2 mph14.8 kmh 30.14 in1020.7 mb 0.00 in0.0 mm 0.00 in0.0 mm 0.00 in0.0 mm
02:20 PM 67.1°F19.5°C 45.1°F7.3°C 45% 2.8 mph SW4.5 kmh SW 7.6 mph12.2 kmh 30.13 in1020.3 mb 0.00 in0.0 mm 0.00 in0.0 mm 0.00 in0.0 mm
02:10 PM 56.7°F13.7°C 45.0°F7.2°C 65% 4.5 mph SW7.2 kmh SW 8.3 mph13.4 kmh 30.13 in1020.3 mb 0.00 in0.0 mm 0.00 in0.0 mm 0.00 in0.0 mm
02:00 PM 56.7°F13.7°C 45.0°F7.2°C 65% 4.5 mph SW7.2 kmh SW 8.3 mph13.4 kmh 30.14 in1020.7 mb 0.00 in0.0 mm 0.00 in0.0 mm 0.00 in0.0 mm
01:50 PM 56.7°F13.7°C 45.0°F7.2°C 65% 4.5 mph SW7.2 kmh SW 8.3 mph13.4 kmh 30.14 in1020.7 mb 0.00 in0.0 mm 0.00 in0.0 mm 0.00 in0.0 mm
01:40 PM 56.7°F13.7°C 45.0°F7.2°C 65% 4.5 mph SW7.2 kmh SW 8.3 mph13.4 kmh 30.15 in1021.0 mb 0.00 in0.0 mm 0.00 in0.0 mm 0.00 in0.0 mm
01:30 PM 56.7°F13.7°C 45.0°F7.2°C 65% 4.5 mph SW7.2 kmh SW 8.3 mph13.4 kmh 30.14 in1020.7 mb 0.00 in0.0 mm 0.00 in0.0 mm 0.00 in0.0 mm
01:20 PM 56.7°F13.7°C 45.0°F7.2°C 65% 4.5 mph SW7.2 kmh SW 8.3 mph13.4 kmh 30.14 in1020.7 mb 0.00 in0.0 mm 0.00 in0.0 mm 0.00 in0.0 mm
01:10 PM 56.7°F13.7°C 45.0°F7.2°C 65% 4.5 mph SW7.2 kmh SW 8.3 mph13.4 kmh 30.14 in1020.7 mb 0.00 in0.0 mm 0.00 in0.0 mm 0.00 in0.0 mm
01:00 PM 56.7°F13.7°C 45.0°F7.2°C 65% 4.5 mph SW7.2 kmh SW 8.3 mph13.4 kmh 30.15 in1021.0 mb 0.00 in0.0 mm 0.00 in0.0 mm 0.00 in0.0 mm
12:50 PM 56.7°F13.7°C 45.0°F7.2°C 65% 4.5 mph SW7.2 kmh SW 8.3 mph13.4 kmh 30.14 in1020.7 mb 0.00 in0.0 mm 0.00 in0.0 mm 0.00 in0.0 mm
12:40 PM 56.7°F13.7°C 45.0°F7.2°C 65% 4.5 mph SW7.2 kmh SW 8.3 mph13.4 kmh 30.15 in1021.0 mb 0.00 in0.0 mm 0.00 in0.0 mm 0.00 in0.0 mm
12:30 PM 56.7°F13.7°C 45.0°F7.2°C 65% 4.5 mph SW7.2 kmh SW 8.3 mph13.4 kmh 30.14 in1020.7 mb 0.00 in0.0 mm 0.00 in0.0 mm 0.00 in0.0 mm
12:20 PM 56.7°F13.7°C 45.0°F7.2°C 65% 4.5 mph SW7.2 kmh SW 8.3 mph13.4 kmh 30.14 in1020.7 mb 0.00 in0.0 mm 0.00 in0.0 mm 0.00 in0.0 mm
12:10 PM 56.7°F13.7°C 45.0°F7.2°C 65% 4.5 mph SW7.2 kmh SW 8.3 mph13.4 kmh 30.15 in1021.0 mb 0.00 in0.0 mm 0.00 in0.0 mm 0.00 in0.0 mm
12:00 PM 56.7°F13.7°C 45.0°F7.2°C 65% 4.5 mph SW7.2 kmh SW 8.3 mph13.4 kmh 30.14 in1020.7 mb 0.00 in0.0 mm 0.00 in0.0 mm 0.00 in0.0 mm
11:50 AM 56.7°F13.7°C 45.0°F7.2°C 65% 4.5 mph SW7.2 kmh SW 8.3 mph13.4 kmh 30.15 in1021.0 mb 0.00 in0.0 mm 0.00 in0.0 mm 0.00 in0.0 mm
11:40 AM 56.7°F13.7°C 45.0°F7.2°C 65% 4.5 mph SW7.2 kmh SW 8.3 mph13.4 kmh 30.14 in1020.7 mb 0.00 in0.0 mm 0.00 in0.0 mm 0.00 in0.0 mm
11:30 AM 56.7°F13.7°C 45.0°F7.2°C 65% 4.5 mph SW7.2 kmh SW 8.3 mph13.4 kmh 30.15 in1021.0 mb 0.00 in0.0 mm 0.00 in0.0 mm 0.00 in0.0 mm
11:20 AM 56.7°F13.7°C 45.0°F7.2°C 65% 4.5 mph SW7.2 kmh SW 8.3 mph13.4 kmh 30.14 in1020.7 mb 0.00 in0.0 mm 0.00 in0.0 mm 0.00 in0.0 mm
11:10 AM 56.7°F13.7°C 45.0°F7.2°C 65% 4.5 mph SW7.2 kmh SW 8.3 mph13.4 kmh 30.15 in1021.0 mb 0.00 in0.0 mm 0.00 in0.0 mm 0.00 in0.0 mm
11:00 AM 56.7°F13.7°C 45.0°F7.2°C 65% 4.5 mph SW7.2 kmh SW 8.3 mph13.4 kmh 30.15 in1021.0 mb 0.00 in0.0 mm 0.00 in0.0 mm 0.00 in0.0 mm
10:50 AM 56.7°F13.7°C 45.0°F7.2°C 65% 4.5 mph SW7.2 kmh SW 8.3 mph13.4 kmh 30.14 in1020.7 mb 0.00 in0.0 mm 0.00 in0.0 mm 0.00 in0.0 mm
10:40 AM 56.7°F13.7°C 45.0°F7.2°C 65% 4.5 mph SW7.2 kmh SW 8.3 mph13.4 kmh 30.14 in1020.7 mb 0.00 in0.0 mm 0.00 in0.0 mm 0.00 in0.0 mm
10:30 AM 56.7°F13.7°C 45.0°F7.2°C 65% 4.4 mph SW7.1 kmh SW 8.3 mph13.4 kmh 30.14 in1020.7 mb 0.00 in0.0 mm 0.00 in0.0 mm 0.00 in0.0 mm
10:20 AM 57.6°F14.2°C 45.5°F7.5°C 64% 4.0 mph W6.4 kmh W 7.6 mph12.2 kmh 30.14 in1020.7 mb 0.00 in0.0 mm 0.00 in0.0 mm 0.00 in0.0 mm
10:10 AM 57.4°F14.1°C 45.3°F7.4°C 64% 2.3 mph S3.7 kmh S 6.0 mph9.7 kmh 30.14 in1020.7 mb 0.00 in0.0 mm 0.00 in0.0 mm 0.00 in0.0 mm
10:00 AM 55.4°F13.0°C 44.6°F7.0°C 67% 2.2 mph S3.5 kmh S 5.4 mph8.7 kmh 30.14 in1020.7 mb 0.00 in0.0 mm 0.00 in0.0 mm 0.00 in0.0 mm
09:50 AM 52.3°F11.3°C 40.5°F4.7°C 64% 3.8 mph SW6.1 kmh SW 6.9 mph11.1 kmh 30.14 in1020.7 mb 0.00 in0.0 mm 0.00 in0.0 mm 0.00 in0.0 mm
09:40 AM 52.3°F11.3°C 40.5°F4.7°C 64% 3.8 mph SW6.1 kmh SW 6.9 mph11.1 kmh 30.14 in1020.7 mb 0.00 in0.0 mm 0.00 in0.0 mm 0.00 in0.0 mm
09:30 AM 52.3°F11.3°C 40.5°F4.7°C 64% 3.8 mph SW6.1 kmh SW 6.9 mph11.1 kmh 30.14 in1020.7 mb 0.00 in0.0 mm 0.00 in0.0 mm 0.00 in0.0 mm
09:20 AM 52.3°F11.3°C 40.5°F4.7°C 64% 3.8 mph SW6.1 kmh SW 6.9 mph11.1 kmh 30.13 in1020.3 mb 0.00 in0.0 mm 0.00 in0.0 mm 0.00 in0.0 mm
09:10 AM 52.3°F11.3°C 40.5°F4.7°C 64% 3.8 mph SW6.1 kmh SW 6.9 mph11.1 kmh 30.13 in1020.3 mb 0.00 in0.0 mm 0.00 in0.0 mm 0.00 in0.0 mm
09:00 AM 52.3°F11.3°C 40.5°F4.7°C 64% 3.8 mph SW6.1 kmh SW 6.9 mph11.1 kmh 30.13 in1020.3 mb 0.00 in0.0 mm 0.00 in0.0 mm 0.00 in0.0 mm
08:50 AM 52.3°F11.3°C 40.5°F4.7°C 64% 3.6 mph SW5.8 kmh SW 6.9 mph11.1 kmh 30.14 in1020.7 mb 0.00 in0.0 mm 0.00 in0.0 mm 0.00 in0.0 mm
08:40 AM 52.9°F11.6°C 42.2°F5.7°C 67% 3.2 mph SSW5.1 kmh SSW 5.4 mph8.7 kmh 30.14 in1020.7 mb 0.00 in0.0 mm 0.00 in0.0 mm 0.00 in0.0 mm
08:30 AM 52.7°F11.5°C 41.3°F5.2°C 65% 3.8 mph S6.1 kmh S 9.8 mph15.8 kmh 30.14 in1020.7 mb 0.00 in0.0 mm 0.00 in0.0 mm 0.00 in0.0 mm
08:20 AM 54.9°F12.7°C 43.3°F6.3°C 65% 2.6 mph WSW4.2 kmh WSW 6.0 mph9.7 kmh 30.14 in1020.7 mb 0.00 in0.0 mm 0.00 in0.0 mm 0.00 in0.0 mm
08:10 AM 54.9°F12.7°C 42.9°F6.1°C 64% 2.9 mph S4.7 kmh S 6.9 mph11.1 kmh 30.14 in1020.7 mb 0.00 in0.0 mm 0.00 in0.0 mm 0.00 in0.0 mm
08:00 AM 52.5°F11.4°C 43.0°F6.1°C 70% 2.2 mph SW3.5 kmh SW 6.0 mph9.7 kmh 30.13 in1020.3 mb 0.00 in0.0 mm 0.00 in0.0 mm 0.00 in0.0 mm
07:50 AM 51.6°F10.9°C 42.9°F6.1°C 72% 2.3 mph SE3.7 kmh SE 6.9 mph11.1 kmh 30.13 in1020.3 mb 0.00 in0.0 mm 0.00 in0.0 mm 0.00 in0.0 mm
07:40 AM 50.5°F10.3°C 41.9°F5.5°C 72% 3.3 mph S5.3 kmh S 9.8 mph15.8 kmh 30.12 in1020.0 mb 0.00 in0.0 mm 0.00 in0.0 mm 0.00 in0.0 mm
07:30 AM 48.7°F9.3°C 41.5°F5.3°C 76% 3.4 mph S5.5 kmh S 6.9 mph11.1 kmh 30.11 in1019.6 mb 0.00 in0.0 mm 0.00 in0.0 mm 0.00 in0.0 mm
07:20 AM 44.8°F7.1°C 40.2°F4.6°C 84% Calm Calm -- 30.11 in1019.6 mb 0.00 in0.0 mm 0.00 in0.0 mm 0.00 in0.0 mm
07:10 AM 44.8°F7.1°C 40.2°F4.6°C 84% Calm Calm -- 30.11 in1019.6 mb 0.00 in0.0 mm 0.00 in0.0 mm 0.00 in0.0 mm
07:00 AM 44.8°F7.1°C 40.2°F4.6°C 84% Calm Calm -- 30.11 in1019.6 mb 0.00 in0.0 mm 0.00 in0.0 mm 0.00 in0.0 mm
06:50 AM 44.8°F7.1°C 40.2°F4.6°C 84% Calm Calm -- 30.11 in1019.6 mb 0.00 in0.0 mm 0.00 in0.0 mm 0.00 in0.0 mm
06:40 AM 44.8°F7.1°C 40.2°F4.6°C 84% Calm Calm -- 30.10 in1019.3 mb 0.00 in0.0 mm 0.00 in0.0 mm 0.00 in0.0 mm
06:30 AM 44.8°F7.1°C 40.2°F4.6°C 84% Calm Calm -- 30.09 in1019.0 mb 0.00 in0.0 mm 0.00 in0.0 mm 0.00 in0.0 mm
06:20 AM 44.8°F7.1°C 40.2°F4.6°C 84% Calm Calm -- 30.09 in1019.0 mb 0.00 in0.0 mm 0.00 in0.0 mm 0.00 in0.0 mm
06:10 AM 44.8°F7.1°C 40.2°F4.6°C 84% Calm Calm -- 30.09 in1019.0 mb 0.00 in0.0 mm 0.00 in0.0 mm 0.00 in0.0 mm
06:00 AM 46.6°F8.1°C 41.7°F5.4°C 83% Calm Calm -- 30.09 in1019.0 mb 0.00 in0.0 mm 0.00 in0.0 mm 0.00 in0.0 mm
05:50 AM 46.6°F8.1°C 41.7°F5.4°C 83% 0.6 mph SE1.0 kmh SE 3.1 mph5.0 kmh 30.08 in1018.6 mb 0.00 in0.0 mm 0.00 in0.0 mm 0.00 in0.0 mm
05:40 AM 47.7°F8.7°C 42.4°F5.8°C 82% 3.6 mph SSE5.8 kmh SSE 11.4 mph18.3 kmh 30.08 in1018.6 mb 0.00 in0.0 mm 0.00 in0.0 mm 0.00 in0.0 mm
05:30 AM 48.4°F9.1°C 42.5°F5.8°C 80% 2.5 mph SE4.0 kmh SE 6.0 mph9.7 kmh 30.07 in1018.3 mb 0.00 in0.0 mm 0.00 in0.0 mm 0.00 in0.0 mm
05:20 AM 48.7°F9.3°C 42.2°F5.7°C 78% 2.4 mph SSE3.9 kmh SSE 7.6 mph12.2 kmh 30.07 in1018.3 mb 0.00 in0.0 mm 0.00 in0.0 mm 0.00 in0.0 mm
05:10 AM 49.5°F9.7°C 42.6°F5.9°C 77% 3.2 mph SSE5.1 kmh SSE 6.9 mph11.1 kmh 30.07 in1018.3 mb 0.00 in0.0 mm 0.00 in0.0 mm 0.00 in0.0 mm
05:00 AM 50.0°F10.0°C 42.4°F5.8°C 75% 3.7 mph S6.0 kmh S 11.4 mph18.3 kmh 30.07 in1018.3 mb 0.00 in0.0 mm 0.00 in0.0 mm 0.00 in0.0 mm
04:50 AM 50.9°F10.5°C 42.9°F6.1°C 74% 5.2 mph S8.4 kmh S 12.1 mph19.5 kmh 30.06 in1017.9 mb 0.00 in0.0 mm 0.00 in0.0 mm 0.00 in0.0 mm
04:40 AM 50.7°F10.4°C 41.3°F5.2°C 70% 4.1 mph SW6.6 kmh SW 10.7 mph17.2 kmh 30.06 in1017.9 mb 0.00 in0.0 mm 0.00 in0.0 mm 0.00 in0.0 mm
04:30 AM 50.4°F10.2°C 41.7°F5.4°C 72% 3.4 mph SW5.5 kmh SW 9.2 mph14.8 kmh 30.06 in1017.9 mb 0.00 in0.0 mm 0.00 in0.0 mm 0.00 in0.0 mm
04:20 AM 50.4°F10.2°C 41.3°F5.2°C 71% 3.4 mph SW5.5 kmh SW 9.8 mph15.8 kmh 30.06 in1017.9 mb 0.00 in0.0 mm 0.00 in0.0 mm 0.00 in0.0 mm
04:10 AM 50.2°F10.1°C 41.1°F5.1°C 71% 3.7 mph SSW6.0 kmh SSW 7.6 mph12.2 kmh 30.06 in1017.9 mb 0.00 in0.0 mm 0.00 in0.0 mm 0.00 in0.0 mm
04:00 AM 49.8°F9.9°C 41.2°F5.1°C 72% 3.0 mph SSW4.8 kmh SSW 7.6 mph12.2 kmh 30.06 in1017.9 mb 0.00 in0.0 mm 0.00 in0.0 mm 0.00 in0.0 mm
03:50 AM 50.2°F10.1°C 41.1°F5.1°C 71% 3.0 mph SW4.8 kmh SW 9.8 mph15.8 kmh 30.06 in1017.9 mb 0.00 in0.0 mm 0.00 in0.0 mm 0.00 in0.0 mm
03:40 AM 50.4°F10.2°C 41.0°F5.0°C 70% 3.4 mph SW5.5 kmh SW 9.2 mph14.8 kmh 30.06 in1017.9 mb 0.00 in0.0 mm 0.00 in0.0 mm 0.00 in0.0 mm
03:30 AM 50.5°F10.3°C 41.9°F5.5°C 72% 3.2 mph SSW5.1 kmh SSW 7.6 mph12.2 kmh 30.06 in1017.9 mb 0.00 in0.0 mm 0.00 in0.0 mm 0.00 in0.0 mm
03:20 AM 50.7°F10.4°C 42.4°F5.8°C 73% 4.6 mph SSW7.4 kmh SSW 11.4 mph18.3 kmh 30.06 in1017.9 mb 0.00 in0.0 mm 0.00 in0.0 mm 0.00 in0.0 mm
03:10 AM 50.5°F10.3°C 43.3°F6.3°C 76% 4.0 mph SSW6.4 kmh SSW 9.8 mph15.8 kmh 30.05 in1017.6 mb 0.00 in0.0 mm 0.00 in0.0 mm 0.00 in0.0 mm
03:00 AM 50.5°F10.3°C 44.3°F6.8°C 79% 3.9 mph SW6.3 kmh SW 9.8 mph15.8 kmh 30.05 in1017.6 mb 0.00 in0.0 mm 0.00 in0.0 mm 0.00 in0.0 mm
02:50 AM 50.0°F10.0°C 44.1°F6.7°C 80% 4.1 mph S6.6 kmh S 10.7 mph17.2 kmh 30.06 in1017.9 mb 0.00 in0.0 mm 0.00 in0.0 mm 0.00 in0.0 mm
02:40 AM 50.9°F10.5°C 45.3°F7.4°C 81% 6.1 mph SE9.8 kmh SE 13.0 mph20.9 kmh 30.06 in1017.9 mb 0.00 in0.0 mm 0.00 in0.0 mm 0.00 in0.0 mm
02:30 AM 50.9°F10.5°C 45.3°F7.4°C 81% 6.1 mph SE9.8 kmh SE 13.0 mph20.9 kmh 30.06 in1017.9 mb 0.00 in0.0 mm 0.00 in0.0 mm 0.00 in0.0 mm
02:20 AM 50.9°F10.5°C 45.3°F7.4°C 81% 6.1 mph SE9.8 kmh SE 13.0 mph20.9 kmh 30.06 in1017.9 mb 0.00 in0.0 mm 0.00 in0.0 mm 0.00 in0.0 mm
02:10 AM 50.9°F10.5°C 45.3°F7.4°C 81% 5.2 mph SW8.4 kmh SW 16.8 mph27.0 kmh 30.07 in1018.3 mb 0.00 in0.0 mm 0.00 in0.0 mm 0.00 in0.0 mm
02:00 AM 50.4°F10.2°C 45.7°F7.6°C 84% 2.8 mph S4.5 kmh S 9.2 mph14.8 kmh 30.06 in1017.9 mb 0.00 in0.0 mm 0.00 in0.0 mm 0.00 in0.0 mm
01:50 AM 50.2°F10.1°C 45.5°F7.5°C 84% 1.8 mph S2.9 kmh S 9.2 mph14.8 kmh 30.07 in1018.3 mb 0.00 in0.0 mm 0.00 in0.0 mm 0.00 in0.0 mm
01:40 AM 50.4°F10.2°C 45.4°F7.4°C 83% 3.1 mph SSE5.0 kmh SSE 9.8 mph15.8 kmh 30.07 in1018.3 mb 0.00 in0.0 mm 0.00 in0.0 mm 0.00 in0.0 mm
01:30 AM 50.5°F10.3°C 45.6°F7.6°C 83% 4.2 mph SW6.8 kmh SW 12.1 mph19.5 kmh 30.07 in1018.3 mb 0.00 in0.0 mm 0.00 in0.0 mm 0.00 in0.0 mm
01:20 AM 50.2°F10.1°C 44.6°F7.0°C 81% 2.4 mph SW3.9 kmh SW 9.2 mph14.8 kmh 30.06 in1017.9 mb 0.00 in0.0 mm 0.00 in0.0 mm 0.00 in0.0 mm
01:10 AM 50.0°F10.0°C 44.4°F6.9°C 81% 2.5 mph SW4.0 kmh SW 11.4 mph18.3 kmh 30.06 in1017.9 mb 0.00 in0.0 mm 0.00 in0.0 mm 0.00 in0.0 mm
01:00 AM 50.2°F10.1°C 44.9°F7.2°C 82% 3.1 mph W5.0 kmh W 8.3 mph13.4 kmh 30.06 in1017.9 mb 0.00 in0.0 mm 0.00 in0.0 mm 0.00 in0.0 mm
12:50 AM 50.2°F10.1°C 45.2°F7.3°C 83% 4.0 mph SSW6.4 kmh SSW 8.3 mph13.4 kmh 30.07 in1018.3 mb 0.00 in0.0 mm 0.00 in0.0 mm 0.00 in0.0 mm
12:40 AM 50.2°F10.1°C 45.5°F7.5°C 84% 5.4 mph SW8.7 kmh SW 7.6 mph12.2 kmh 30.07 in1018.3 mb 0.00 in0.0 mm 0.00 in0.0 mm 0.00 in0.0 mm
12:30 AM 48.6°F9.2°C 46.3°F7.9°C 92% 3.2 mph E5.1 kmh E 8.3 mph13.4 kmh 30.07 in1018.3 mb 0.00 in0.0 mm 0.00 in0.0 mm 0.00 in0.0 mm
12:20 AM 48.6°F9.2°C 46.3°F7.9°C 92% 3.2 mph E5.1 kmh E 8.3 mph13.4 kmh 30.06 in1017.9 mb 0.00 in0.0 mm 0.00 in0.0 mm 0.00 in0.0 mm
12:10 AM 48.6°F9.2°C 46.3°F7.9°C 92% 3.2 mph E5.1 kmh E 8.3 mph13.4 kmh 30.06 in1017.9 mb 0.00 in0.0 mm 0.00 in0.0 mm 0.00 in0.0 mm
12:00 AM 48.6°F9.2°C 46.3°F7.9°C 92% 3.2 mph E5.1 kmh E 8.3 mph13.4 kmh 30.06 in1017.9 mb 0.00 in0.0 mm 0.00 in0.0 mm 0.00 in0.0 mm